Time;durP1;ratioP1;P1;durP2;ratioP2;P2;SDS_P1;SDS_P2;PMS_P1;PMS_P2;Temp;Humidity;BMP_temperature;BMP_pressure;BME280_temperature;BME280_humidity;BME280_pressure;Samples;Min_cycle;Max_cycle;Signal;HPM_P1;HPM_P2
2023/10/02 00:01:19;;;;;;;9.57;5.30;;;11.90;99.90;;;;;;5050445;28;21107;-80
2023/10/02 00:03:48;;;;;;;9.53;4.97;;;11.80;99.90;;;;;;5049618;28;20472;-80
2023/10/02 00:06:16;;;;;;;14.50;4.80;;;11.70;99.90;;;;;;5061244;28;20466;-80
2023/10/02 00:08:49;;;;;;;8.80;4.73;;;11.60;99.90;;;;;;5044072;28;20498;-79
2023/10/02 00:14:22;;;;;;;6.73;4.40;;;11.50;99.90;;;;;;5048913;28;20453;-80
2023/10/02 00:17:00;;;;;;;13.33;5.70;;;11.40;99.90;;;;;;5044330;28;20495;-79
2023/10/02 00:19:35;;;;;;;11.43;5.27;;;11.40;99.90;;;;;;5049433;28;20467;-80
2023/10/02 00:22:05;;;;;;;11.53;6.53;;;11.30;99.90;;;;;;5049433;28;20798;-79
2023/10/02 00:24:35;;;;;;;10.10;6.00;;;11.30;99.90;;;;;;5046565;28;20459;-80
2023/10/02 00:27:03;;;;;;;6.60;4.33;;;11.30;99.90;;;;;;5044279;28;20463;-83
2023/10/02 00:29:32;;;;;;;5.90;4.97;;;11.30;99.90;;;;;;5049510;28;20460;-80
2023/10/02 00:31:59;;;;;;;10.50;5.57;;;11.30;99.90;;;;;;5054169;28;20444;-80
2023/10/02 00:34:36;;;;;;;11.17;6.80;;;11.30;99.90;;;;;;5056895;28;20994;-81
2023/10/02 00:37:12;;;;;;;9.43;6.77;;;11.40;99.90;;;;;;5052207;28;20853;-83
2023/10/02 00:39:40;;;;;;;11.60;6.20;;;11.50;99.90;;;;;;5052298;28;20817;-80
2023/10/02 00:42:24;;;;;;;7.33;4.97;;;11.40;99.90;;;;;;5052246;28;20841;-82
2023/10/02 00:44:57;;;;;;;10.70;5.87;;;11.50;99.90;;;;;;5054873;28;20519;-84
2023/10/02 00:47:45;;;;;;;8.83;4.77;;;11.50;99.90;;;;;;5062596;28;20448;-83
2023/10/02 00:50:19;;;;;;;9.27;5.20;;;11.50;99.90;;;;;;5051493;28;20465;-79
2023/10/02 00:52:58;;;;;;;9.40;5.40;;;11.50;99.90;;;;;;5046672;28;20491;-80
2023/10/02 00:55:27;;;;;;;11.43;5.73;;;11.60;99.90;;;;;;5047683;28;20976;-82
2023/10/02 00:57:56;;;;;;;10.80;8.13;;;11.60;99.90;;;;;;5051390;28;20824;-80
2023/10/02 01:00:42;;;;;;;11.67;5.70;;;11.60;99.90;;;;;;5045732;28;20865;-80
2023/10/02 01:03:14;;;;;;;13.80;6.00;;;11.60;99.90;;;;;;5049687;28;20493;-79
2023/10/02 01:05:47;;;;;;;13.43;7.00;;;11.50;99.90;;;;;;5050867;28;20910;-80
2023/10/02 01:08:24;;;;;;;10.33;5.50;;;11.70;99.90;;;;;;5048940;28;20478;-82
2023/10/02 01:10:57;;;;;;;7.40;4.77;;;11.60;99.90;;;;;;5052085;28;20529;-82
2023/10/02 01:13:28;;;;;;;5.97;4.37;;;11.60;99.90;;;;;;5046585;28;20467;-81
2023/10/02 01:15:57;;;;;;;9.67;6.87;;;11.60;99.90;;;;;;5046115;28;20503;-79
2023/10/02 01:18:28;;;;;;;17.50;7.93;;;11.50;99.90;;;;;;5044331;28;20532;-81
2023/10/02 01:20:56;;;;;;;14.07;5.97;;;11.50;99.90;;;;;;5047808;28;20450;-81
2023/10/02 01:23:25;;;;;;;8.60;4.83;;;11.40;99.90;;;;;;5053174;28;20870;-80
2023/10/02 01:25:57;;;;;;;11.87;5.87;;;11.40;99.90;;;;;;5048742;28;20453;-81
2023/10/02 01:28:26;;;;;;;13.93;6.57;;;11.40;99.90;;;;;;5046705;28;20521;-79
2023/10/02 01:30:55;;;;;;;12.50;5.80;;;11.40;99.90;;;;;;5051767;28;20499;-79
2023/10/02 01:33:26;;;;;;;11.67;5.13;;;11.30;99.90;;;;;;5047078;28;20454;-80
2023/10/02 01:35:58;;;;;;;11.07;5.63;;;11.30;99.90;;;;;;5045375;28;20481;-80
2023/10/02 01:38:29;;;;;;;7.40;4.80;;;11.20;99.90;;;;;;5051463;28;20965;-80
2023/10/02 01:41:04;;;;;;;9.10;5.30;;;11.10;99.90;;;;;;5051788;28;20512;-80
2023/10/02 01:43:35;;;;;;;11.80;6.87;;;11.20;99.90;;;;;;5051792;28;20452;-80
2023/10/02 01:46:05;;;;;;;10.70;5.17;;;11.10;99.90;;;;;;5043051;28;20460;-84
2023/10/02 01:48:44;;;;;;;8.47;6.33;;;11.10;99.90;;;;;;5054610;28;20538;-79
2023/10/02 01:51:25;;;;;;;6.77;4.30;;;11.00;99.90;;;;;;5045408;28;20466;-80
2023/10/02 01:53:55;;;;;;;8.70;4.63;;;11.00;99.90;;;;;;5049029;28;20480;-80
2023/10/02 01:56:24;;;;;;;5.67;4.93;;;10.90;99.90;;;;;;5050367;28;20553;-80
2023/10/02 01:58:52;;;;;;;9.53;5.47;;;10.90;99.90;;;;;;5047517;28;20516;-78
2023/10/02 02:01:21;;;;;;;15.10;6.37;;;10.90;99.90;;;;;;5047600;28;20449;-84
2023/10/02 02:03:51;;;;;;;9.73;6.13;;;11.00;99.90;;;;;;5044555;28;20561;-80
2023/10/02 02:06:21;;;;;;;12.13;7.43;;;11.10;99.90;;;;;;5048313;28;20821;-80
2023/10/02 02:08:58;;;;;;;11.00;7.07;;;11.20;99.90;;;;;;5045163;28;20538;-82
2023/10/02 02:11:29;;;;;;;14.57;6.20;;;11.10;99.90;;;;;;5044808;28;20460;-82
2023/10/02 02:13:59;;;;;;;10.37;7.93;;;11.20;99.90;;;;;;5050705;28;20462;-78
2023/10/02 02:16:31;;;;;;;11.10;6.60;;;11.20;99.90;;;;;;5047796;28;20475;-80
2023/10/02 02:19:01;;;;;;;11.30;8.70;;;11.20;99.90;;;;;;5046752;28;20971;-79
2023/10/02 02:21:29;;;;;;;7.43;4.53;;;11.20;99.90;;;;;;5050937;28;20897;-79
2023/10/02 02:24:07;;;;;;;10.13;6.33;;;11.10;99.90;;;;;;5048487;28;20463;-82
2023/10/02 02:26:37;;;;;;;8.20;6.33;;;11.00;99.90;;;;;;5045021;28;20507;-84
2023/10/02 02:29:05;;;;;;;9.13;6.80;;;11.00;99.90;;;;;;5045680;28;20446;-80
2023/10/02 02:31:32;;;;;;;8.63;5.80;;;11.00;99.90;;;;;;5048657;28;21196;-80
2023/10/02 02:34:14;;;;;;;10.83;5.50;;;10.90;99.90;;;;;;5041470;28;20493;-80
2023/10/02 02:36:42;;;;;;;12.33;5.87;;;10.90;99.90;;;;;;5047185;28;20502;-80
2023/10/02 02:39:17;;;;;;;11.07;7.13;;;11.00;99.90;;;;;;5048030;28;20499;-80
2023/10/02 02:41:47;;;;;;;12.00;7.30;;;11.00;99.90;;;;;;5047758;28;20520;-79
2023/10/02 02:44:36;;;;;;;17.83;8.57;;;11.00;99.90;;;;;;5055165;28;20501;-79
2023/10/02 02:47:07;;;;;;;12.73;6.10;;;10.90;99.90;;;;;;5046811;28;20463;-80
2023/10/02 02:49:48;;;;;;;12.20;8.40;;;11.00;99.90;;;;;;5046280;28;20448;-79
2023/10/02 02:52:19;;;;;;;12.33;7.20;;;10.90;99.90;;;;;;5042959;28;20470;-79
2023/10/02 02:54:47;;;;;;;11.73;7.00;;;10.90;99.90;;;;;;5052217;28;20481;-82
2023/10/02 02:57:18;;;;;;;11.93;6.57;;;10.90;99.90;;;;;;5051773;28;20863;-80
2023/10/02 02:59:46;;;;;;;13.10;5.00;;;10.90;99.90;;;;;;5047645;28;20891;-80
2023/10/02 03:02:21;;;;;;;12.03;5.83;;;10.80;99.90;;;;;;5052650;28;20974;-80
2023/10/02 03:04:51;;;;;;;16.80;7.10;;;10.70;99.90;;;;;;5055166;28;20565;-79
2023/10/02 03:07:29;;;;;;;8.53;5.40;;;10.70;99.90;;;;;;5050013;28;20529;-82
2023/10/02 03:09:59;;;;;;;12.10;5.93;;;10.70;99.90;;;;;;5050713;28;20470;-80
2023/10/02 03:12:28;;;;;;;10.67;7.13;;;10.60;99.90;;;;;;5051119;28;20451;-80
2023/10/02 03:14:56;;;;;;;12.70;5.80;;;10.50;99.90;;;;;;5052367;28;20542;-81
2023/10/02 03:17:31;;;;;;;11.93;6.43;;;10.50;99.90;;;;;;5047734;28;20558;-81
2023/10/02 03:20:00;;;;;;;13.13;7.03;;;10.50;99.90;;;;;;5039537;28;20716;-79
2023/10/02 03:22:33;;;;;;;13.90;5.57;;;10.50;99.90;;;;;;5045733;28;20492;-80
2023/10/02 03:25:25;;;;;;;9.33;5.23;;;10.50;99.90;;;;;;5057075;28;20467;-80
2023/10/02 03:27:54;;;;;;;9.50;4.97;;;10.50;99.90;;;;;;5043639;28;20486;-79
2023/10/02 03:33:20;;;;;;;11.30;6.27;;;10.40;99.90;;;;;;5103257;27;20518;-78
2023/10/02 03:36:07;;;;;;;16.73;7.00;;;10.40;99.90;;;;;;5083504;28;20845;-80
2023/10/02 03:38:35;;;;;;;10.60;5.70;;;10.40;99.90;;;;;;5082275;28;20441;-78
2023/10/02 03:41:04;;;;;;;9.80;5.83;;;10.40;99.90;;;;;;5081931;28;20511;-78
2023/10/02 03:43:43;;;;;;;15.00;8.10;;;10.40;99.90;;;;;;5082218;28;20479;-78
2023/10/02 03:46:15;;;;;;;9.50;6.70;;;10.40;99.90;;;;;;5082953;28;20455;-78
2023/10/02 03:48:51;;;;;;;9.90;5.97;;;10.40;99.90;;;;;;5073475;28;20552;-77
2023/10/02 03:51:36;;;;;;;10.23;7.03;;;10.40;99.90;;;;;;5083551;28;20550;-79
2023/10/02 03:54:17;;;;;;;12.73;6.60;;;10.40;99.90;;;;;;5083143;28;20439;-77
2023/10/02 03:56:47;;;;;;;7.47;5.00;;;10.30;99.90;;;;;;5082550;28;20468;-80
2023/10/02 03:59:16;;;;;;;10.63;7.27;;;10.40;99.90;;;;;;5082916;28;20502;-82
2023/10/02 04:01:44;;;;;;;10.73;6.53;;;10.40;99.90;;;;;;5079953;28;20470;-81
2023/10/02 04:04:19;;;;;;;8.40;4.60;;;10.30;99.90;;;;;;5068308;28;21045;-79
2023/10/02 04:06:47;;;;;;;10.00;6.10;;;10.20;99.90;;;;;;5082388;28;20452;-80
2023/10/02 04:09:21;;;;;;;11.53;6.90;;;10.30;99.90;;;;;;5083093;28;20469;-80
2023/10/02 04:11:50;;;;;;;10.50;5.07;;;10.30;99.90;;;;;;5082622;28;20480;-78
2023/10/02 04:14:31;;;;;;;8.83;5.87;;;10.30;99.90;;;;;;5074029;28;20459;-79
2023/10/02 04:17:13;;;;;;;13.27;4.80;;;10.30;99.90;;;;;;5084850;28;20447;-83
2023/10/02 04:19:47;;;;;;;6.93;4.83;;;10.30;99.90;;;;;;5070526;28;20459;-80
2023/10/02 04:22:19;;;;;;;8.23;5.10;;;10.30;99.90;;;;;;5074585;28;20842;-79
2023/10/02 04:24:54;;;;;;;6.80;4.70;;;10.20;99.90;;;;;;5085026;28;20444;-84
2023/10/02 04:27:26;;;;;;;15.53;5.90;;;10.20;99.90;;;;;;5078386;28;20498;-78
2023/10/02 04:30:20;;;;;;;8.53;4.27;;;10.20;99.90;;;;;;5076359;28;20534;-80
2023/10/02 04:32:51;;;;;;;6.87;5.50;;;10.20;99.90;;;;;;5081860;28;20487;-82
2023/10/02 04:38:09;;;;;;;7.73;6.40;;;10.20;99.90;;;;;;5074761;28;20445;-80
2023/10/02 04:40:49;;;;;;;10.80;6.10;;;10.20;99.90;;;;;;5079243;28;20444;-78
2023/10/02 04:43:22;;;;;;;9.30;5.77;;;10.30;99.90;;;;;;5070547;28;20471;-82
2023/10/02 04:45:49;;;;;;;8.63;5.27;;;10.30;99.90;;;;;;5063023;28;20499;-79
2023/10/02 04:48:16;;;;;;;9.27;4.70;;;10.30;99.90;;;;;;5069388;28;20447;-78
2023/10/02 04:50:47;;;;;;;9.80;6.20;;;10.40;99.90;;;;;;5068942;28;20468;-78
2023/10/02 04:53:22;;;;;;;8.37;5.40;;;10.30;99.90;;;;;;5067431;28;20488;-78
2023/10/02 04:56:06;;;;;;;7.90;4.70;;;10.30;99.90;;;;;;5061977;28;20538;-78
2023/10/02 04:58:36;;;;;;;8.47;4.83;;;10.40;99.90;;;;;;5071089;28;20460;-80
2023/10/02 05:03:51;;;;;;;10.50;4.90;;;10.10;99.90;;;;;;5070580;28;21025;-79
2023/10/02 05:11:50;;;;;;;10.93;6.77;;;9.90;99.90;;;;;;5067195;28;20548;-78
2023/10/02 05:14:22;;;;;;;7.93;4.57;;;9.90;99.90;;;;;;5066800;28;20998;-79
2023/10/02 05:16:50;;;;;;;7.60;5.20;;;9.90;99.90;;;;;;5063521;28;20457;-78
2023/10/02 05:19:16;;;;;;;10.37;6.50;;;10.00;99.90;;;;;;5066135;28;20464;-80
2023/10/02 05:21:50;;;;;;;8.33;5.20;;;10.00;99.90;;;;;;5058571;28;20462;-79
2023/10/02 05:24:18;;;;;;;10.53;4.27;;;10.00;99.90;;;;;;5059678;28;20552;-79
2023/10/02 05:26:46;;;;;;;8.17;4.53;;;10.00;99.90;;;;;;5067456;28;20453;-82
2023/10/02 05:29:17;;;;;;;13.57;5.33;;;10.10;99.90;;;;;;5063278;28;20518;-78
2023/10/02 05:31:45;;;;;;;10.73;4.70;;;10.10;99.90;;;;;;5056897;28;20501;-79
2023/10/02 05:34:18;;;;;;;11.40;5.30;;;10.20;99.90;;;;;;5060305;28;20539;-78
2023/10/02 05:37:03;;;;;;;9.57;5.80;;;10.40;99.90;;;;;;5064073;28;20471;-78
2023/10/02 05:39:34;;;;;;;8.00;4.63;;;10.40;99.90;;;;;;5062060;28;20505;-80
2023/10/02 05:42:05;;;;;;;9.93;6.63;;;10.50;99.90;;;;;;5068015;28;20468;-78
2023/10/02 05:44:34;;;;;;;12.83;6.13;;;10.60;99.90;;;;;;5057979;28;20484;-81
2023/10/02 05:47:07;;;;;;;18.30;6.30;;;10.70;99.90;;;;;;5067488;28;20924;-78
2023/10/02 05:49:36;;;;;;;10.67;5.53;;;10.70;99.90;;;;;;5068283;28;20439;-80
2023/10/02 05:52:07;;;;;;;9.20;5.33;;;10.80;99.90;;;;;;5067610;28;20558;-79
2023/10/02 05:54:36;;;;;;;14.10;5.90;;;11.00;99.90;;;;;;5065092;28;20948;-79
2023/10/02 05:57:12;;;;;;;16.43;7.80;;;11.10;99.90;;;;;;5065410;28;20455;-78
2023/10/02 05:59:52;;;;;;;8.23;6.13;;;11.10;99.90;;;;;;5060523;28;20463;-79
2023/10/02 06:02:22;;;;;;;10.00;5.60;;;11.10;99.90;;;;;;5056182;28;20505;-80
2023/10/02 06:04:52;;;;;;;17.40;5.23;;;11.20;99.90;;;;;;5062622;28;20551;-80
2023/10/02 06:10:07;;;;;;;9.40;5.87;;;11.40;99.90;;;;;;5065256;28;20471;-78
2023/10/02 06:12:34;;;;;;;9.80;6.03;;;11.40;99.90;;;;;;5056199;28;21229;-84
2023/10/02 06:15:09;;;;;;;8.83;6.50;;;11.50;99.90;;;;;;5066656;28;20448;-78
2023/10/02 06:17:36;;;;;;;11.33;4.80;;;11.60;99.90;;;;;;5059909;28;20558;-79
2023/10/02 06:20:17;;;;;;;12.10;5.30;;;11.60;99.90;;;;;;5066455;28;21070;-79
2023/10/02 06:22:47;;;;;;;11.73;5.17;;;11.60;99.90;;;;;;5066087;28;20504;-84
2023/10/02 06:25:18;;;;;;;9.10;4.17;;;11.70;99.90;;;;;;5068364;28;20469;-82
2023/10/02 06:27:47;;;;;;;6.40;4.20;;;11.80;99.90;;;;;;5063268;28;20467;-82
2023/10/02 06:30:16;;;;;;;11.07;6.83;;;11.90;99.90;;;;;;5059177;28;20469;-83
2023/10/02 06:32:52;;;;;;;7.27;3.63;;;12.00;99.90;;;;;;5062967;28;20483;-84
2023/10/02 06:35:21;;;;;;;5.67;3.90;;;12.00;99.90;;;;;;5064690;28;20494;-83
2023/10/02 06:37:50;;;;;;;10.67;6.27;;;12.10;99.90;;;;;;5060795;28;20507;-82
2023/10/02 06:40:20;;;;;;;8.20;5.07;;;12.10;99.90;;;;;;5060006;28;20472;-82
2023/10/02 06:42:51;;;;;;;7.80;5.90;;;12.20;99.90;;;;;;5065426;28;21208;-83
2023/10/02 06:45:20;;;;;;;12.67;6.13;;;12.30;99.90;;;;;;5066584;28;20456;-83
2023/10/02 06:47:48;;;;;;;5.80;5.13;;;12.40;99.90;;;;;;5066665;28;20496;-81
2023/10/02 06:50:27;;;;;;;10.37;5.30;;;12.50;99.90;;;;;;5066347;28;20458;-85
2023/10/02 06:52:57;;;;;;;8.67;5.70;;;12.60;99.90;;;;;;5063985;28;20851;-84
2023/10/02 06:55:24;;;;;;;7.03;4.10;;;12.80;99.90;;;;;;5066173;28;21025;-84
2023/10/02 06:57:52;;;;;;;8.97;4.40;;;13.00;99.90;;;;;;5067178;28;20871;-85
2023/10/02 07:00:20;;;;;;;9.73;5.40;;;13.10;99.90;;;;;;5064931;28;20522;-81
2023/10/02 07:02:56;;;;;;;8.63;3.90;;;13.20;99.90;;;;;;5062471;28;20536;-80
2023/10/02 07:05:27;;;;;;;10.20;5.67;;;13.30;99.90;;;;;;5066019;28;20531;-83
2023/10/02 07:08:01;;;;;;;9.00;5.13;;;13.30;99.90;;;;;;5064685;28;20480;-82
2023/10/02 07:10:29;;;;;;;6.10;4.20;;;13.50;99.90;;;;;;5061751;28;20474;-82
2023/10/02 07:12:58;;;;;;;10.20;5.00;;;13.50;99.90;;;;;;5065908;28;20618;-84
2023/10/02 07:15:26;;;;;;;10.83;5.00;;;13.50;99.90;;;;;;5066503;28;20444;-81
2023/10/02 07:18:00;;;;;;;14.13;5.17;;;13.60;99.90;;;;;;5066142;28;20467;-80
2023/10/02 07:20:42;;;;;;;11.00;6.40;;;13.70;99.90;;;;;;5067373;28;20476;-81
2023/10/02 07:23:19;;;;;;;4.60;3.70;;;14.00;99.90;;;;;;5065541;28;21036;-83
2023/10/02 07:25:50;;;;;;;7.67;5.40;;;14.00;99.90;;;;;;5062737;28;20507;-81
2023/10/02 07:28:17;;;;;;;5.50;4.20;;;14.10;99.90;;;;;;5066075;28;20454;-83
2023/10/02 07:30:46;;;;;;;9.13;5.70;;;14.30;99.90;;;;;;5058462;28;20503;-82
2023/10/02 07:33:14;;;;;;;11.07;5.27;;;14.20;99.90;;;;;;5065582;28;21062;-81
2023/10/02 07:35:40;;;;;;;11.97;6.23;;;14.30;99.90;;;;;;5065364;28;20491;-82
2023/10/02 07:38:14;;;;;;;6.10;4.27;;;14.50;99.90;;;;;;5064620;28;20984;-82
2023/10/02 07:40:48;;;;;;;9.60;5.33;;;14.70;99.90;;;;;;5064851;28;20447;-82
2023/10/02 07:43:16;;;;;;;6.43;4.10;;;14.90;99.90;;;;;;5065287;28;20587;-82
2023/10/02 07:45:44;;;;;;;8.40;6.17;;;15.10;99.90;;;;;;5066989;28;20451;-83
2023/10/02 07:48:12;;;;;;;12.40;5.43;;;15.00;99.90;;;;;;5062227;28;20446;-81
2023/10/02 07:50:41;;;;;;;9.57;5.83;;;15.10;99.90;;;;;;5065909;28;21555;-82
2023/10/02 07:53:09;;;;;;;9.30;5.23;;;15.30;99.90;;;;;;5066726;28;20494;-81
2023/10/02 07:55:42;;;;;;;11.57;5.07;;;15.40;99.90;;;;;;5066060;28;20524;-82
2023/10/02 07:58:13;;;;;;;13.20;5.70;;;15.40;99.90;;;;;;5066582;28;20995;-80
2023/10/02 08:00:41;;;;;;;8.13;4.93;;;15.50;99.90;;;;;;5063444;28;20450;-83
2023/10/02 08:05:57;;;;;;;7.40;5.80;;;15.80;99.90;;;;;;5065458;28;20465;-81
2023/10/02 08:08:32;;;;;;;7.77;6.43;;;15.80;99.90;;;;;;5065710;28;20902;-84
2023/10/02 08:11:02;;;;;;;8.73;5.10;;;15.90;99.90;;;;;;5052721;28;20465;-82
2023/10/02 08:13:36;;;;;;;9.53;4.30;;;15.90;99.90;;;;;;5061163;28;20494;-82
2023/10/02 08:16:08;;;;;;;6.87;4.00;;;16.00;99.90;;;;;;5057239;28;20533;-84
2023/10/02 08:18:55;;;;;;;6.13;4.53;;;16.10;99.90;;;;;;5064375;28;21015;-84
2023/10/02 08:21:34;;;;;;;9.07;4.60;;;16.20;99.90;;;;;;5070079;28;20484;-83
2023/10/02 08:24:05;;;;;;;6.30;3.60;;;16.40;99.90;;;;;;5066451;28;20840;-82
2023/10/02 08:26:40;;;;;;;8.10;5.23;;;16.60;99.90;;;;;;5069753;28;20487;-81
2023/10/02 08:29:08;;;;;;;9.57;5.50;;;16.60;99.90;;;;;;5067130;28;20454;-81
2023/10/02 08:31:42;;;;;;;10.50;6.23;;;16.70;99.90;;;;;;5060646;28;20479;-85
2023/10/02 08:34:12;;;;;;;6.33;5.63;;;16.80;99.90;;;;;;5067291;28;20491;-82
2023/10/02 08:36:40;;;;;;;7.83;5.33;;;16.80;99.90;;;;;;5067460;28;20459;-81
2023/10/02 08:39:08;;;;;;;8.40;4.90;;;16.80;99.90;;;;;;5065765;28;20800;-82
2023/10/02 08:41:43;;;;;;;8.40;6.13;;;16.90;99.90;;;;;;5068042;28;20452;-83
2023/10/02 08:44:14;;;;;;;15.70;8.30;;;16.80;99.90;;;;;;5067343;28;20475;-81
2023/10/02 08:46:43;;;;;;;8.13;4.43;;;16.90;99.90;;;;;;5065290;28;20464;-83
2023/10/02 08:49:11;;;;;;;15.13;6.73;;;16.90;99.90;;;;;;5067211;28;20455;-83
2023/10/02 08:51:48;;;;;;;8.80;5.10;;;16.80;99.90;;;;;;5064556;28;20525;-82
2023/10/02 08:54:15;;;;;;;10.33;5.50;;;17.00;99.90;;;;;;5061917;28;21258;-84
2023/10/02 08:56:44;;;;;;;10.20;5.87;;;17.00;99.90;;;;;;5068550;28;21117;-82
2023/10/02 08:59:19;;;;;;;10.23;5.50;;;17.10;99.90;;;;;;5066718;28;21175;-84
2023/10/02 09:01:48;;;;;;;7.47;4.20;;;17.20;99.90;;;;;;5059243;28;20511;-82
2023/10/02 09:04:29;;;;;;;7.50;3.97;;;17.30;99.90;;;;;;5060717;28;20584;-83
2023/10/02 09:07:13;;;;;;;10.60;6.10;;;17.50;99.90;;;;;;5062711;28;20455;-82
2023/10/02 09:09:45;;;;;;;8.07;5.40;;;17.40;99.90;;;;;;5062770;28;20463;-83
2023/10/02 09:12:17;;;;;;;10.30;5.37;;;17.50;99.90;;;;;;5077428;28;20524;-83
2023/10/02 09:14:44;;;;;;;8.83;4.67;;;17.60;99.90;;;;;;5068041;28;20508;-82
2023/10/02 09:17:19;;;;;;;8.73;7.20;;;17.80;99.90;;;;;;5076026;28;21124;-83
2023/10/02 09:19:54;;;;;;;8.63;5.50;;;17.60;99.90;;;;;;5061477;28;20448;-83
2023/10/02 09:22:23;;;;;;;18.43;6.60;;;17.90;99.90;;;;;;5060688;28;20552;-85
2023/10/02 09:25:10;;;;;;;17.40;6.50;;;17.90;99.90;;;;;;5060129;28;20451;-82
2023/10/02 09:27:54;;;;;;;10.53;4.33;;;17.90;99.90;;;;;;5067725;28;20856;-84
2023/10/02 09:30:36;;;;;;;16.20;6.93;;;18.00;99.90;;;;;;5059598;28;20830;-84
2023/10/02 09:33:08;;;;;;;9.00;5.73;;;17.90;99.90;;;;;;5067220;28;20582;-82
2023/10/02 09:35:41;;;;;;;8.03;4.87;;;17.90;99.90;;;;;;5059327;28;20467;-82
2023/10/02 09:38:10;;;;;;;11.40;5.17;;;18.10;99.90;;;;;;5062284;28;20470;-82
2023/10/02 09:40:56;;;;;;;8.00;5.23;;;18.10;99.90;;;;;;5059014;28;20444;-83
2023/10/02 09:43:27;;;;;;;14.83;5.13;;;18.10;99.90;;;;;;5058840;28;20460;-82
2023/10/02 09:45:55;;;;;;;7.30;4.93;;;18.40;99.90;;;;;;5068166;28;20441;-83
2023/10/02 09:48:57;;;;;;;17.03;6.70;;;18.50;99.90;;;;;;5064515;28;20456;-83
2023/10/02 09:51:37;;;;;;;11.00;6.20;;;18.60;99.90;;;;;;5067851;28;20790;-83
2023/10/02 09:54:13;;;;;;;9.47;5.40;;;18.90;99.90;;;;;;5066284;28;20576;-85
2023/10/02 09:56:53;;;;;;;11.77;6.90;;;18.90;99.90;;;;;;5061946;28;20483;-86
2023/10/02 09:59:23;;;;;;;10.27;5.60;;;18.90;99.90;;;;;;5067979;28;20450;-83
2023/10/02 10:10:50;;;;;;;10.70;5.00;;;19.20;99.90;;;;;;5066570;28;20452;-83
2023/10/02 10:13:27;;;;;;;15.10;6.33;;;19.40;99.50;;;;;;5067148;28;20539;-85
2023/10/02 10:16:29;;;;;;;12.90;7.67;;;19.20;99.90;;;;;;5065515;28;20454;-83
2023/10/02 10:19:30;;;;;;;8.07;5.80;;;19.40;99.90;;;;;;5065438;28;20458;-85
2023/10/02 10:21:57;;;;;;;6.83;5.57;;;19.60;98.80;;;;;;5052645;28;20463;-83
2023/10/02 10:24:37;;;;;;;15.60;7.23;;;19.60;97.30;;;;;;5066150;28;20463;-84
2023/10/02 10:27:03;;;;;;;8.83;5.23;;;19.60;95.60;;;;;;5061521;28;20520;-85
2023/10/02 10:29:41;;;;;;;10.77;5.50;;;19.50;94.60;;;;;;5067889;28;20538;-84
2023/10/02 10:32:31;;;;;;;11.30;5.07;;;19.50;97.10;;;;;;5066112;28;20486;-85
2023/10/02 10:35:17;;;;;;;14.37;6.30;;;20.00;96.90;;;;;;5057133;28;20574;-84
2023/10/02 10:37:46;;;;;;;9.13;4.63;;;20.40;95.10;;;;;;5066866;28;20453;-85
2023/10/02 10:40:50;;;;;;;9.00;5.30;;;20.30;93.60;;;;;;5063883;28;20451;-83
2023/10/02 10:43:18;;;;;;;10.60;5.47;;;20.20;96.20;;;;;;5059656;28;20443;-87
2023/10/02 10:45:48;;;;;;;16.50;6.70;;;20.30;94.70;;;;;;5065941;28;20456;-84
2023/10/02 10:48:22;;;;;;;10.03;7.40;;;20.50;94.40;;;;;;5062759;28;20445;-86
2023/10/02 10:50:59;;;;;;;8.87;5.60;;;20.70;93.90;;;;;;5060290;28;20542;-84
2023/10/02 10:53:28;;;;;;;19.50;6.10;;;20.70;87.50;;;;;;5063728;28;20483;-84
2023/10/02 10:56:00;;;;;;;10.20;6.30;;;20.90;86.00;;;;;;5062907;28;20503;-86
2023/10/02 10:58:34;;;;;;;17.20;8.17;;;20.90;87.40;;;;;;5063615;28;20513;-82
2023/10/02 11:01:03;;;;;;;11.60;5.97;;;20.90;89.60;;;;;;5066302;28;20543;-83
2023/10/02 11:03:31;;;;;;;11.83;7.67;;;21.00;88.60;;;;;;5066626;28;20468;-84
2023/10/02 11:06:04;;;;;;;9.13;6.00;;;21.10;84.60;;;;;;5068163;28;20982;-85
2023/10/02 11:08:37;;;;;;;9.33;5.80;;;21.00;85.20;;;;;;5066535;28;20492;-84
2023/10/02 11:11:19;;;;;;;8.57;5.80;;;21.20;84.70;;;;;;5062796;28;20523;-84
2023/10/02 11:13:59;;;;;;;9.00;6.47;;;21.00;90.40;;;;;;5065301;28;20479;-88
2023/10/02 11:16:34;;;;;;;14.80;7.60;;;21.10;88.40;;;;;;5065060;28;20525;-84
2023/10/02 11:19:14;;;;;;;11.83;5.13;;;21.30;85.50;;;;;;5063841;28;20475;-87
2023/10/02 11:22:02;;;;;;;10.47;5.37;;;21.50;90.70;;;;;;5060830;28;20456;-83
2023/10/02 11:24:30;;;;;;;7.67;4.80;;;21.80;85.50;;;;;;5063693;28;20479;-86
2023/10/02 11:27:06;;;;;;;9.10;5.87;;;21.90;79.80;;;;;;5065027;28;20546;-84
2023/10/02 11:29:40;;;;;;;10.10;5.40;;;22.00;83.50;;;;;;5063340;28;20460;-84
2023/10/02 11:32:20;;;;;;;14.90;6.40;;;21.70;80.90;;;;;;5064951;28;20471;-84
2023/10/02 11:34:48;;;;;;;11.60;6.13;;;21.60;81.80;;;;;;5063134;28;20522;-84
2023/10/02 11:37:18;;;;;;;14.63;6.57;;;21.60;82.20;;;;;;5066234;28;20506;-87
2023/10/02 11:39:50;;;;;;;9.30;6.57;;;21.70;80.00;;;;;;5066359;28;20444;-87
2023/10/02 11:42:19;;;;;;;7.30;5.77;;;21.70;79.20;;;;;;5056984;28;21057;-84
2023/10/02 11:44:46;;;;;;;11.37;5.30;;;21.60;75.30;;;;;;5067732;28;20455;-84
2023/10/02 11:47:13;;;;;;;12.10;7.33;;;21.80;71.20;;;;;;5066298;28;20501;-87
2023/10/02 11:49:41;;;;;;;8.40;5.53;;;21.80;71.20;;;;;;5058841;28;20509;-84
2023/10/02 11:52:09;;;;;;;7.73;4.53;;;22.00;69.60;;;;;;5062909;28;20448;-84
2023/10/02 11:54:39;;;;;;;7.43;5.10;;;22.00;68.60;;;;;;5062440;28;20494;-84
2023/10/02 11:57:09;;;;;;;14.33;6.33;;;22.00;70.40;;;;;;5069746;28;20512;-84
2023/10/02 11:59:37;;;;;;;9.57;5.40;;;22.20;70.10;;;;;;5070360;28;20530;-83
2023/10/02 12:02:05;;;;;;;7.03;5.63;;;22.20;67.50;;;;;;5069746;28;20529;-85
2023/10/02 12:04:33;;;;;;;11.70;5.37;;;22.50;68.50;;;;;;5064176;28;20473;-84
2023/10/02 12:07:01;;;;;;;10.83;5.43;;;22.60;67.60;;;;;;5068358;28;20447;-84
2023/10/02 12:09:28;;;;;;;6.97;4.70;;;22.80;67.20;;;;;;5067220;28;20517;-84
2023/10/02 12:11:58;;;;;;;13.50;7.10;;;22.60;65.60;;;;;;5059708;28;20947;-86
2023/10/02 12:14:26;;;;;;;11.00;4.93;;;22.90;65.40;;;;;;5068805;28;20537;-86
2023/10/02 12:16:54;;;;;;;9.60;6.07;;;23.00;64.80;;;;;;5067369;28;20554;-83
2023/10/02 12:19:22;;;;;;;10.70;4.53;;;23.20;59.20;;;;;;5063330;28;20472;-85
2023/10/02 12:21:51;;;;;;;8.67;4.73;;;23.10;60.10;;;;;;5064903;28;20466;-83
2023/10/02 12:24:19;;;;;;;8.97;4.07;;;23.10;58.90;;;;;;5066372;28;20535;-84
2023/10/02 12:26:46;;;;;;;18.13;6.13;;;23.20;61.50;;;;;;5068703;28;20448;-83
2023/10/02 12:29:15;;;;;;;10.33;6.40;;;23.30;59.80;;;;;;5061839;28;20471;-83
2023/10/02 12:31:43;;;;;;;11.53;5.00;;;23.40;58.80;;;;;;5065887;28;20491;-86
2023/10/02 12:34:10;;;;;;;6.77;4.20;;;23.60;57.60;;;;;;5064240;28;20487;-85
2023/10/02 12:36:37;;;;;;;8.07;3.80;;;23.60;55.90;;;;;;5065768;28;20962;-84
2023/10/02 12:39:12;;;;;;;6.53;4.20;;;23.70;58.30;;;;;;5064840;28;20468;-83
2023/10/02 12:41:41;;;;;;;8.83;5.30;;;23.70;59.00;;;;;;5064135;28;20470;-84
2023/10/02 12:44:08;;;;;;;8.60;4.70;;;23.70;57.00;;;;;;5068325;28;20456;-84
2023/10/02 12:46:43;;;;;;;9.70;4.77;;;23.70;58.30;;;;;;5068745;28;20439;-83
2023/10/02 12:49:10;;;;;;;7.83;4.13;;;23.70;59.40;;;;;;5058239;28;20553;-83
2023/10/02 12:51:38;;;;;;;7.10;4.63;;;23.50;58.20;;;;;;5069051;28;20444;-83
2023/10/02 12:54:05;;;;;;;11.53;5.40;;;23.60;58.80;;;;;;5067962;28;20491;-83
2023/10/02 12:56:32;;;;;;;9.27;4.80;;;23.60;58.30;;;;;;5068262;28;20535;-84
2023/10/02 12:58:59;;;;;;;12.80;6.33;;;23.70;57.70;;;;;;5069046;28;20452;-83
2023/10/02 13:01:27;;;;;;;10.73;5.20;;;23.60;60.00;;;;;;5062769;28;21122;-83
2023/10/02 13:03:58;;;;;;;7.27;5.00;;;23.70;59.00;;;;;;5065448;28;20555;-83
2023/10/02 13:06:26;;;;;;;8.67;5.10;;;23.70;59.40;;;;;;5064937;28;20455;-83
2023/10/02 13:08:57;;;;;;;11.53;4.33;;;23.90;60.10;;;;;;5061871;28;20550;-86
2023/10/02 13:11:24;;;;;;;8.87;5.23;;;23.90;59.30;;;;;;5067223;28;20552;-83
2023/10/02 13:13:53;;;;;;;7.30;5.63;;;23.90;59.20;;;;;;5066518;28;20460;-83
2023/10/02 13:16:21;;;;;;;7.83;4.33;;;23.90;61.10;;;;;;5068908;28;20521;-86
2023/10/02 13:18:50;;;;;;;7.57;4.43;;;23.70;62.80;;;;;;5062693;28;20456;-86
2023/10/02 13:21:19;;;;;;;12.57;7.30;;;23.70;63.60;;;;;;5067511;28;20877;-86
2023/10/02 13:23:46;;;;;;;10.00;5.23;;;23.70;65.90;;;;;;5059297;28;20441;-84
2023/10/02 13:26:16;;;;;;;8.30;4.67;;;23.70;60.10;;;;;;5065262;28;20507;-84
2023/10/02 13:28:48;;;;;;;9.20;4.23;;;23.70;61.20;;;;;;5064088;28;20676;-84
2023/10/02 13:31:16;;;;;;;8.00;4.80;;;23.70;62.50;;;;;;5068096;28;21087;-85
2023/10/02 13:33:46;;;;;;;9.20;4.50;;;23.70;60.20;;;;;;5059255;28;20471;-83
2023/10/02 13:36:14;;;;;;;7.20;4.40;;;23.80;63.40;;;;;;5063131;28;20447;-83
2023/10/02 13:38:42;;;;;;;9.20;3.93;;;23.80;62.20;;;;;;5067142;28;20463;-83
2023/10/02 13:41:09;;;;;;;7.60;4.90;;;23.80;61.10;;;;;;5068306;28;20497;-84